sensor_id;sensor_type;location;lat;lon;timestamp;pressure;altitude;pressure_sealevel;temperature;humidity
17373;BME280;8803;48.116;11.590;2024-01-15T00:00:09;94290.42;;;2.49;72.88
17373;BME280;8803;48.116;11.590;2024-01-15T00:04:27;94294.60;;;2.51;72.55
17373;BME280;8803;48.116;11.590;2024-01-15T00:08:44;94283.48;;;2.53;75.42
17373;BME280;8803;48.116;11.590;2024-01-15T00:13:02;94278.01;;;2.56;77.07
17373;BME280;8803;48.116;11.590;2024-01-15T00:17:21;94295.79;;;2.58;75.64
17373;BME280;8803;48.116;11.590;2024-01-15T00:19:26;94301.65;;;2.56;74.36
17373;BME280;8803;48.116;11.590;2024-01-15T00:21:31;94299.77;;;2.42;77.32
17373;BME280;8803;48.116;11.590;2024-01-15T00:25:50;94291.25;;;2.60;74.85
17373;BME280;8803;48.116;11.590;2024-01-15T00:30:11;94300.28;;;2.67;75.65
17373;BME280;8803;48.116;11.590;2024-01-15T00:34:29;94301.37;;;2.70;76.04
17373;BME280;8803;48.116;11.590;2024-01-15T00:38:47;94304.46;;;2.70;75.79
17373;BME280;8803;48.116;11.590;2024-01-15T00:43:05;94300.77;;;2.72;76.80
17373;BME280;8803;48.116;11.590;2024-01-15T00:47:25;94313.40;;;2.78;77.30
17373;BME280;8803;48.116;11.590;2024-01-15T00:51:43;94320.75;;;2.58;80.05
17373;BME280;8803;48.116;11.590;2024-01-15T00:56:01;94328.48;;;2.71;79.83
17373;BME280;8803;48.116;11.590;2024-01-15T00:58:06;94332.41;;;2.65;79.67
17373;BME280;8803;48.116;11.590;2024-01-15T01:00:14;94332.77;;;2.72;79.14
17373;BME280;8803;48.116;11.590;2024-01-15T01:04:32;94332.77;;;2.77;79.08
17373;BME280;8803;48.116;11.590;2024-01-15T01:08:49;94333.95;;;2.79;79.16
17373;BME280;8803;48.116;11.590;2024-01-15T01:13:07;94334.59;;;2.60;79.89
17373;BME280;8803;48.116;11.590;2024-01-15T01:15:12;94336.23;;;2.72;79.56
17373;BME280;8803;48.116;11.590;2024-01-15T01:17:17;94333.84;;;2.75;78.90
17373;BME280;8803;48.116;11.590;2024-01-15T01:21:34;94349.75;;;2.51;79.01
17373;BME280;8803;48.116;11.590;2024-01-15T01:25:52;94340.70;;;2.38;78.58
17373;BME280;8803;48.116;11.590;2024-01-15T01:30:11;94342.97;;;2.43;77.99
17373;BME280;8803;48.116;11.590;2024-01-15T01:34:28;94347.03;;;2.30;76.27
17373;BME280;8803;48.116;11.590;2024-01-15T01:38:47;94361.11;;;2.02;76.29
17373;BME280;8803;48.116;11.590;2024-01-15T01:43:05;94355.16;;;2.16;76.50
17373;BME280;8803;48.116;11.590;2024-01-15T01:47:25;94356.21;;;2.19;75.19
17373;BME280;8803;48.116;11.590;2024-01-15T01:51:43;94356.45;;;2.22;75.73
17373;BME280;8803;48.116;11.590;2024-01-15T01:56:02;94371.00;;;2.15;75.45
17373;BME280;8803;48.116;11.590;2024-01-15T02:00:20;94361.60;;;2.12;75.45
17373;BME280;8803;48.116;11.590;2024-01-15T02:02:25;94373.28;;;2.14;74.87
17373;BME280;8803;48.116;11.590;2024-01-15T02:06:46;94364.20;;;2.23;74.97
17373;BME280;8803;48.116;11.590;2024-01-15T02:11:05;94359.67;;;2.25;74.31
17373;BME280;8803;48.116;11.590;2024-01-15T02:15:22;94362.30;;;2.25;74.48
17373;BME280;8803;48.116;11.590;2024-01-15T02:19:40;94370.05;;;2.21;74.06
17373;BME280;8803;48.116;11.590;2024-01-15T02:23:58;94371.48;;;2.25;73.70
17373;BME280;8803;48.116;11.590;2024-01-15T02:26:03;94379.15;;;2.23;73.72
17373;BME280;8803;48.116;11.590;2024-01-15T02:28:09;94373.64;;;2.26;73.21
17373;BME280;8803;48.116;11.590;2024-01-15T02:30:15;94368.28;;;2.16;73.22
17373;BME280;8803;48.116;11.590;2024-01-15T02:32:20;94361.34;;;2.21;73.58
17373;BME280;8803;48.116;11.590;2024-01-15T02:34:24;94376.86;;;2.24;73.48
17373;BME280;8803;48.116;11.590;2024-01-15T02:38:43;94396.20;;;2.28;73.56
17373;BME280;8803;48.116;11.590;2024-01-15T02:43:01;94388.22;;;2.35;73.43
17373;BME280;8803;48.116;11.590;2024-01-15T02:47:21;94393.59;;;2.39;73.18
17373;BME280;8803;48.116;11.590;2024-01-15T02:51:39;94395.48;;;2.43;72.73
17373;BME280;8803;48.116;11.590;2024-01-15T02:55:57;94401.08;;;2.44;72.63
17373;BME280;8803;48.116;11.590;2024-01-15T03:00:16;94418.06;;;2.46;72.54
17373;BME280;8803;48.116;11.590;2024-01-15T03:04:34;94395.98;;;2.48;72.32
17373;BME280;8803;48.116;11.590;2024-01-15T03:06:39;94396.20;;;2.45;72.33
17373;BME280;8803;48.116;11.590;2024-01-15T03:08:43;94397.39;;;2.47;72.34
17373;BME280;8803;48.116;11.590;2024-01-15T03:13:17;94385.59;;;2.52;72.20
17373;BME280;8803;48.116;11.590;2024-01-15T03:15:23;94395.38;;;2.50;72.20
17373;BME280;8803;48.116;11.590;2024-01-15T03:19:40;94390.35;;;2.58;71.86
17373;BME280;8803;48.116;11.590;2024-01-15T03:23:58;94382.34;;;2.60;71.77
17373;BME280;8803;48.116;11.590;2024-01-15T03:26:03;94386.30;;;2.54;71.55
17373;BME280;8803;48.116;11.590;2024-01-15T03:28:08;94388.55;;;2.53;71.38
17373;BME280;8803;48.116;11.590;2024-01-15T03:32:28;94384.73;;;2.57;71.50
17373;BME280;8803;48.116;11.590;2024-01-15T03:36:46;94375.19;;;2.56;71.36
17373;BME280;8803;48.116;11.590;2024-01-15T03:41:04;94370.54;;;2.54;71.44
17373;BME280;8803;48.116;11.590;2024-01-15T03:47:35;94384.39;;;2.56;71.62
17373;BME280;8803;48.116;11.590;2024-01-15T03:51:53;94395.70;;;2.57;71.50
17373;BME280;8803;48.116;11.590;2024-01-15T03:56:10;94381.16;;;2.58;71.39
17373;BME280;8803;48.116;11.590;2024-01-15T04:00:28;94378.41;;;2.60;71.28
17373;BME280;8803;48.116;11.590;2024-01-15T04:04:46;94370.52;;;2.60;71.26
17373;BME280;8803;48.116;11.590;2024-01-15T04:09:03;94368.27;;;2.61;71.10
17373;BME280;8803;48.116;11.590;2024-01-15T04:13:21;94359.55;;;2.60;70.91
17373;BME280;8803;48.116;11.590;2024-01-15T04:17:39;94364.80;;;2.60;70.78
17373;BME280;8803;48.116;11.590;2024-01-15T04:22:02;94350.09;;;2.63;70.96
17373;BME280;8803;48.116;11.590;2024-01-15T04:26:21;94351.06;;;2.62;70.86
17373;BME280;8803;48.116;11.590;2024-01-15T04:28:25;94360.61;;;2.58;70.58
17373;BME280;8803;48.116;11.590;2024-01-15T04:30:30;94358.83;;;2.58;70.53
17373;BME280;8803;48.116;11.590;2024-01-15T04:34:48;94368.01;;;2.64;70.86
17373;BME280;8803;48.116;11.590;2024-01-15T04:39:05;94363.59;;;2.64;70.25
17373;BME280;8803;48.116;11.590;2024-01-15T04:43:25;94359.66;;;2.64;70.20
17373;BME280;8803;48.116;11.590;2024-01-15T04:47:43;94350.59;;;2.63;70.22
17373;BME280;8803;48.116;11.590;2024-01-15T04:52:00;94358.95;;;2.62;70.30
17373;BME280;8803;48.116;11.590;2024-01-15T04:54:06;94350.24;;;2.56;70.16
17373;BME280;8803;48.116;11.590;2024-01-15T04:56:10;94356.67;;;2.58;70.28
17373;BME280;8803;48.116;11.590;2024-01-15T04:58:15;94363.72;;;2.57;69.88
17373;BME280;8803;48.116;11.590;2024-01-15T05:02:33;94360.26;;;2.62;70.17
17373;BME280;8803;48.116;11.590;2024-01-15T05:04:37;94366.34;;;2.57;69.87
17373;BME280;8803;48.116;11.590;2024-01-15T05:08:55;94364.54;;;2.63;70.30
17373;BME280;8803;48.116;11.590;2024-01-15T05:13:13;94351.91;;;2.63;69.90
17373;BME280;8803;48.116;11.590;2024-01-15T05:15:18;94357.62;;;2.57;69.98
17373;BME280;8803;48.116;11.590;2024-01-15T05:19:35;94342.00;;;2.61;70.00
17373;BME280;8803;48.116;11.590;2024-01-15T05:23:53;94366.95;;;2.61;70.17
17373;BME280;8803;48.116;11.590;2024-01-15T05:28:30;94347.36;;;2.65;69.94
17373;BME280;8803;48.116;11.590;2024-01-15T05:32:48;94360.59;;;2.63;69.61
17373;BME280;8803;48.116;11.590;2024-01-15T05:37:06;94362.75;;;2.64;69.90
17373;BME280;8803;48.116;11.590;2024-01-15T05:41:24;94352.25;;;2.64;69.43
17373;BME280;8803;48.116;11.590;2024-01-15T05:45:43;94349.99;;;2.65;69.34
17373;BME280;8803;48.116;11.590;2024-01-15T05:50:01;94345.67;;;2.64;69.32
17373;BME280;8803;48.116;11.590;2024-01-15T05:52:06;94360.02;;;2.60;69.35
17373;BME280;8803;48.116;11.590;2024-01-15T05:56:24;94354.41;;;2.64;69.23
17373;BME280;8803;48.116;11.590;2024-01-15T06:00:41;94362.88;;;2.62;69.43
17373;BME280;8803;48.116;11.590;2024-01-15T06:04:59;94350.59;;;2.63;69.06
17373;BME280;8803;48.116;11.590;2024-01-15T06:09:19;94350.46;;;2.64;68.78
17373;BME280;8803;48.116;11.590;2024-01-15T06:13:36;94354.16;;;2.62;68.78
17373;BME280;8803;48.116;11.590;2024-01-15T06:15:41;94350.58;;;2.57;69.06
17373;BME280;8803;48.116;11.590;2024-01-15T06:19:59;94349.88;;;2.61;68.47
17373;BME280;8803;48.116;11.590;2024-01-15T06:22:04;94358.48;;;2.40;68.56
17373;BME280;8803;48.116;11.590;2024-01-15T06:26:22;94356.91;;;2.55;69.22
17373;BME280;8803;48.116;11.590;2024-01-15T06:30:39;94357.41;;;2.54;68.84
17373;BME280;8803;48.116;11.590;2024-01-15T06:34:58;94355.36;;;2.58;68.99
17373;BME280;8803;48.116;11.590;2024-01-15T06:39:16;94360.86;;;2.60;68.86
17373;BME280;8803;48.116;11.590;2024-01-15T06:43:34;94352.98;;;2.60;68.62
17373;BME280;8803;48.116;11.590;2024-01-15T06:47:52;94350.93;;;2.64;68.93
17373;BME280;8803;48.116;11.590;2024-01-15T06:52:10;94357.03;;;2.64;68.83
17373;BME280;8803;48.116;11.590;2024-01-15T06:54:15;94356.31;;;2.62;68.49
17373;BME280;8803;48.116;11.590;2024-01-15T06:56:20;94354.16;;;2.62;68.09
17373;BME280;8803;48.116;11.590;2024-01-15T06:58:25;94356.08;;;2.60;68.31
17373;BME280;8803;48.116;11.590;2024-01-15T07:02:42;94354.64;;;2.67;68.30
17373;BME280;8803;48.116;11.590;2024-01-15T07:07:00;94354.98;;;2.68;67.92
17373;BME280;8803;48.116;11.590;2024-01-15T07:11:22;94358.80;;;2.69;68.08
17373;BME280;8803;48.116;11.590;2024-01-15T07:15:39;94353.67;;;2.68;68.44
17373;BME280;8803;48.116;11.590;2024-01-15T07:17:44;94349.02;;;2.66;67.92
17373;BME280;8803;48.116;11.590;2024-01-15T07:22:02;94338.02;;;2.72;68.28
17373;BME280;8803;48.116;11.590;2024-01-15T07:26:21;94344.83;;;2.74;68.40
17373;BME280;8803;48.116;11.590;2024-01-15T07:30:38;94344.83;;;2.74;68.19
17373;BME280;8803;48.116;11.590;2024-01-15T07:34:56;94347.83;;;2.75;68.25
17373;BME280;8803;48.116;11.590;2024-01-15T07:39:15;94344.59;;;2.77;68.32
17373;BME280;8803;48.116;11.590;2024-01-15T07:43:33;94336.58;;;2.79;68.39
17373;BME280;8803;48.116;11.590;2024-01-15T07:47:52;94342.55;;;2.81;68.62
17373;BME280;8803;48.116;11.590;2024-01-15T07:52:11;94338.84;;;2.83;68.13
17373;BME280;8803;48.116;11.590;2024-01-15T07:56:29;94345.28;;;2.85;68.34
17373;BME280;8803;48.116;11.590;2024-01-15T08:00:46;94348.75;;;2.85;68.32
17373;BME280;8803;48.116;11.590;2024-01-15T08:05:05;94341.70;;;2.86;68.61
17373;BME280;8803;48.116;11.590;2024-01-15T08:09:23;94320.66;;;2.91;68.27
17373;BME280;8803;48.116;11.590;2024-01-15T08:13:41;94312.30;;;2.92;68.36
17373;BME280;8803;48.116;11.590;2024-01-15T08:17:59;94313.48;;;2.93;68.28
17373;BME280;8803;48.116;11.590;2024-01-15T08:22:18;94302.59;;;2.92;68.58
17373;BME280;8803;48.116;11.590;2024-01-15T08:26:36;94315.27;;;2.93;68.52
17373;BME280;8803;48.116;11.590;2024-01-15T08:30:53;94313.51;;;2.88;68.27
17373;BME280;8803;48.116;11.590;2024-01-15T08:35:12;94302.02;;;2.94;68.29
17373;BME280;8803;48.116;11.590;2024-01-15T08:39:33;94311.93;;;2.96;68.58
17373;BME280;8803;48.116;11.590;2024-01-15T08:43:52;94308.19;;;2.99;68.36
17373;BME280;8803;48.116;11.590;2024-01-15T08:48:10;94326.12;;;2.99;68.41
17373;BME280;8803;48.116;11.590;2024-01-15T08:52:28;94314.42;;;2.98;68.26
17373;BME280;8803;48.116;11.590;2024-01-15T08:56:47;94322.05;;;3.01;68.25
17373;BME280;8803;48.116;11.590;2024-01-15T09:01:05;94309.98;;;3.04;68.31
17373;BME280;8803;48.116;11.590;2024-01-15T09:05:23;94308.19;;;3.04;68.03
17373;BME280;8803;48.116;11.590;2024-01-15T09:09:40;94312.00;;;3.06;68.52
17373;BME280;8803;48.116;11.590;2024-01-15T09:13:59;94323.09;;;3.09;68.31
17373;BME280;8803;48.116;11.590;2024-01-15T09:18:18;94322.52;;;3.06;68.64
17373;BME280;8803;48.116;11.590;2024-01-15T09:22:36;94321.77;;;3.09;68.12
17373;BME280;8803;48.116;11.590;2024-01-15T09:26:56;94325.62;;;3.11;68.53
17373;BME280;8803;48.116;11.590;2024-01-15T09:31:14;94321.27;;;3.15;68.21
17373;BME280;8803;48.116;11.590;2024-01-15T09:35:33;94324.64;;;3.17;68.12
17373;BME280;8803;48.116;11.590;2024-01-15T09:39:51;94336.06;;;3.22;68.16
17373;BME280;8803;48.116;11.590;2024-01-15T09:44:12;94329.59;;;3.26;68.00
17373;BME280;8803;48.116;11.590;2024-01-15T09:48:28;94329.35;;;3.29;68.00
17373;BME280;8803;48.116;11.590;2024-01-15T09:52:46;94322.41;;;3.34;67.67
17373;BME280;8803;48.116;11.590;2024-01-15T09:57:06;94332.55;;;3.38;67.40
17373;BME280;8803;48.116;11.590;2024-01-15T10:01:25;94335.75;;;3.42;67.40
17373;BME280;8803;48.116;11.590;2024-01-15T10:05:45;94326.64;;;3.46;67.19
17373;BME280;8803;48.116;11.590;2024-01-15T10:10:06;94321.75;;;3.47;66.98
17373;BME280;8803;48.116;11.590;2024-01-15T10:14:25;94312.98;;;3.52;66.87
17373;BME280;8803;48.116;11.590;2024-01-15T10:18:43;94303.86;;;3.56;66.58
17373;BME280;8803;48.116;11.590;2024-01-15T10:25:15;94293.56;;;3.58;66.41
17373;BME280;8803;48.116;11.590;2024-01-15T10:29:34;94298.69;;;3.60;66.17
17373;BME280;8803;48.116;11.590;2024-01-15T10:33:53;94282.30;;;3.62;66.12
17373;BME280;8803;48.116;11.590;2024-01-15T10:38:11;94269.98;;;3.62;66.00
17373;BME280;8803;48.116;11.590;2024-01-15T10:42:32;94264.00;;;3.66;65.66
17373;BME280;8803;48.116;11.590;2024-01-15T10:46:50;94257.34;;;3.56;65.59
17373;BME280;8803;48.116;11.590;2024-01-15T10:51:09;94263.38;;;3.68;66.41
17373;BME280;8803;48.116;11.590;2024-01-15T10:55:28;94267.69;;;3.84;64.88
17373;BME280;8803;48.116;11.590;2024-01-15T10:57:33;94271.02;;;3.86;64.20
17373;BME280;8803;48.116;11.590;2024-01-15T10:59:38;94261.58;;;3.83;63.48
17373;BME280;8803;48.116;11.590;2024-01-15T11:01:44;94270.93;;;3.82;63.93
17373;BME280;8803;48.116;11.590;2024-01-15T11:06:01;94247.33;;;3.86;64.80
17373;BME280;8803;48.116;11.590;2024-01-15T11:10:43;94241.90;;;3.93;64.52
17373;BME280;8803;48.116;11.590;2024-01-15T11:15:08;94247.86;;;3.95;64.46
17373;BME280;8803;48.116;11.590;2024-01-15T11:19:27;94247.50;;;3.94;64.51
17373;BME280;8803;48.116;11.590;2024-01-15T11:21:32;94247.27;;;3.91;64.69
17373;BME280;8803;48.116;11.590;2024-01-15T11:23:44;94243.69;;;3.92;64.59
17373;BME280;8803;48.116;11.590;2024-01-15T11:28:03;94244.22;;;4.02;64.58
17373;BME280;8803;48.116;11.590;2024-01-15T11:32:23;94241.30;;;4.05;64.52
17373;BME280;8803;48.116;11.590;2024-01-15T11:37:04;94227.27;;;4.10;64.65
17373;BME280;8803;48.116;11.590;2024-01-15T11:41:55;94226.25;;;4.16;64.49
17373;BME280;8803;48.116;11.590;2024-01-15T11:46:13;94224.94;;;4.16;64.52
17373;BME280;8803;48.116;11.590;2024-01-15T11:50:32;94233.94;;;4.14;64.41
17373;BME280;8803;48.116;11.590;2024-01-15T11:54:54;94232.53;;;4.10;64.56
17373;BME280;8803;48.116;11.590;2024-01-15T11:59:11;94217.97;;;4.06;64.36
17373;BME280;8803;48.116;11.590;2024-01-15T12:03:31;94211.93;;;3.99;64.70
17373;BME280;8803;48.116;11.590;2024-01-15T12:07:50;94209.47;;;3.92;64.93
17373;BME280;8803;48.116;11.590;2024-01-15T12:09:55;94206.89;;;3.87;64.84
17373;BME280;8803;48.116;11.590;2024-01-15T12:12:02;94199.58;;;3.85;64.93
17373;BME280;8803;48.116;11.590;2024-01-15T12:14:09;94200.09;;;3.84;65.18
17373;BME280;8803;48.116;11.590;2024-01-15T12:18:27;94198.02;;;3.88;65.59
17373;BME280;8803;48.116;11.590;2024-01-15T12:22:46;94192.28;;;3.88;65.40
17373;BME280;8803;48.116;11.590;2024-01-15T12:27:04;94186.31;;;3.86;65.55
17373;BME280;8803;48.116;11.590;2024-01-15T12:31:22;94163.80;;;3.88;65.68
17373;BME280;8803;48.116;11.590;2024-01-15T12:35:40;94150.16;;;3.88;65.80
17373;BME280;8803;48.116;11.590;2024-01-15T12:40:00;94136.92;;;3.84;66.06
17373;BME280;8803;48.116;11.590;2024-01-15T12:44:20;94150.34;;;3.81;66.38
17373;BME280;8803;48.116;11.590;2024-01-15T12:48:39;94146.24;;;3.83;66.21
17373;BME280;8803;48.116;11.590;2024-01-15T12:52:58;94159.30;;;3.84;66.42
17373;BME280;8803;48.116;11.590;2024-01-15T12:57:17;94153.52;;;3.85;66.44
17373;BME280;8803;48.116;11.590;2024-01-15T12:59:22;94155.19;;;3.76;66.43
17373;BME280;8803;48.116;11.590;2024-01-15T13:01:27;94154.42;;;3.80;66.52
17373;BME280;8803;48.116;11.590;2024-01-15T13:05:45;94140.11;;;3.88;66.74
17373;BME280;8803;48.116;11.590;2024-01-15T13:10:03;94130.79;;;3.99;66.69
17373;BME280;8803;48.116;11.590;2024-01-15T13:14:22;94128.64;;;4.08;66.54
17373;BME280;8803;48.116;11.590;2024-01-15T13:16:27;94149.70;;;4.08;66.31
17373;BME280;8803;48.116;11.590;2024-01-15T13:20:45;94162.98;;;4.22;65.94
17373;BME280;8803;48.116;11.590;2024-01-15T13:25:04;94168.47;;;4.24;65.85
17373;BME280;8803;48.116;11.590;2024-01-15T13:29:23;94158.63;;;4.26;65.84
17373;BME280;8803;48.116;11.590;2024-01-15T13:31:28;94165.98;;;4.23;65.93
17373;BME280;8803;48.116;11.590;2024-01-15T13:35:46;94163.13;;;4.30;66.09
17373;BME280;8803;48.116;11.590;2024-01-15T13:40:08;94168.77;;;4.31;65.89
17373;BME280;8803;48.116;11.590;2024-01-15T13:42:15;94162.30;;;4.29;65.57
17373;BME280;8803;48.116;11.590;2024-01-15T13:46:32;94173.89;;;4.32;66.16
17373;BME280;8803;48.116;11.590;2024-01-15T13:50:50;94163.20;;;4.34;65.94
17373;BME280;8803;48.116;11.590;2024-01-15T13:55:09;94175.64;;;4.37;65.86
17373;BME280;8803;48.116;11.590;2024-01-15T13:59:27;94175.27;;;4.36;65.73
17373;BME280;8803;48.116;11.590;2024-01-15T14:03:47;94166.28;;;4.39;65.81
17373;BME280;8803;48.116;11.590;2024-01-15T14:05:52;94168.00;;;4.34;65.65
17373;BME280;8803;48.116;11.590;2024-01-15T14:10:11;94163.42;;;4.36;65.80
17373;BME280;8803;48.116;11.590;2024-01-15T14:14:29;94177.77;;;4.38;65.84
17373;BME280;8803;48.116;11.590;2024-01-15T14:16:34;94181.64;;;4.34;65.65
17373;BME280;8803;48.116;11.590;2024-01-15T14:20:51;94177.58;;;4.35;66.02
17373;BME280;8803;48.116;11.590;2024-01-15T14:22:57;94181.57;;;4.30;65.93
17373;BME280;8803;48.116;11.590;2024-01-15T14:27:15;94179.30;;;4.31;66.13
17373;BME280;8803;48.116;11.590;2024-01-15T14:31:32;94186.00;;;4.29;66.27
17373;BME280;8803;48.116;11.590;2024-01-15T14:35:50;94185.81;;;4.27;66.55
17373;BME280;8803;48.116;11.590;2024-01-15T14:40:10;94201.39;;;4.24;66.48
17373;BME280;8803;48.116;11.590;2024-01-15T14:42:15;94196.05;;;4.20;66.39
17373;BME280;8803;48.116;11.590;2024-01-15T14:44:20;94199.63;;;4.19;66.32
17373;BME280;8803;48.116;11.590;2024-01-15T14:46:25;94202.63;;;4.20;66.63
17373;BME280;8803;48.116;11.590;2024-01-15T14:50:44;94204.91;;;4.19;66.88
17373;BME280;8803;48.116;11.590;2024-01-15T14:55:08;94201.57;;;4.17;67.20
17373;BME280;8803;48.116;11.590;2024-01-15T14:59:26;94208.08;;;4.13;67.23
17373;BME280;8803;48.116;11.590;2024-01-15T15:03:45;94211.55;;;4.14;67.33
17373;BME280;8803;48.116;11.590;2024-01-15T15:08:03;94212.39;;;4.14;67.43
17373;BME280;8803;48.116;11.590;2024-01-15T15:10:11;94222.70;;;4.12;67.23
17373;BME280;8803;48.116;11.590;2024-01-15T15:12:15;94224.49;;;4.11;67.17
17373;BME280;8803;48.116;11.590;2024-01-15T15:14:20;94227.60;;;4.11;66.97
17373;BME280;8803;48.116;11.590;2024-01-15T15:18:38;94224.02;;;4.12;67.44
17373;BME280;8803;48.116;11.590;2024-01-15T15:22:56;94234.19;;;4.11;67.42
17373;BME280;8803;48.116;11.590;2024-01-15T15:27:14;94236.27;;;4.07;67.53
17373;BME280;8803;48.116;11.590;2024-01-15T15:31:31;94245.11;;;4.06;67.73
17373;BME280;8803;48.116;11.590;2024-01-15T15:35:50;94257.66;;;4.08;67.91
17373;BME280;8803;48.116;11.590;2024-01-15T15:40:10;94264.75;;;4.08;67.69
17373;BME280;8803;48.116;11.590;2024-01-15T15:42:16;94268.39;;;4.01;67.63
17373;BME280;8803;48.116;11.590;2024-01-15T15:46:34;94255.31;;;4.05;68.04
17373;BME280;8803;48.116;11.590;2024-01-15T15:50:55;94266.46;;;4.03;67.99
17373;BME280;8803;48.116;11.590;2024-01-15T15:55:14;94267.30;;;4.04;68.03
17373;BME280;8803;48.116;11.590;2024-01-15T15:59:32;94281.56;;;4.01;68.11
17373;BME280;8803;48.116;11.590;2024-01-15T16:01:37;94288.67;;;3.95;68.15
17373;BME280;8803;48.116;11.590;2024-01-15T16:05:54;94286.23;;;3.97;68.36
17373;BME280;8803;48.116;11.590;2024-01-15T16:10:32;94302.53;;;3.97;68.55
17373;BME280;8803;48.116;11.590;2024-01-15T16:14:50;94313.68;;;3.95;68.57
17373;BME280;8803;48.116;11.590;2024-01-15T16:16:55;94317.52;;;3.76;69.35
17373;BME280;8803;48.116;11.590;2024-01-15T16:21:13;94318.26;;;3.87;69.40
17373;BME280;8803;48.116;11.590;2024-01-15T16:25:31;94320.55;;;3.86;69.59
17373;BME280;8803;48.116;11.590;2024-01-15T16:29:49;94325.20;;;3.88;69.65
17373;BME280;8803;48.116;11.590;2024-01-15T16:34:07;94323.19;;;3.86;69.82
17373;BME280;8803;48.116;11.590;2024-01-15T16:38:25;94326.44;;;3.84;70.61
17373;BME280;8803;48.116;11.590;2024-01-15T16:40:30;94332.55;;;3.79;70.56
17373;BME280;8803;48.116;11.590;2024-01-15T16:44:47;94346.08;;;3.80;72.20
17373;BME280;8803;48.116;11.590;2024-01-15T16:49:05;94343.22;;;3.78;72.05
17373;BME280;8803;48.116;11.590;2024-01-15T16:53:26;94351.59;;;3.77;72.42
17373;BME280;8803;48.116;11.590;2024-01-15T16:57:44;94357.70;;;3.78;72.50
17373;BME280;8803;48.116;11.590;2024-01-15T17:02:02;94357.47;;;3.75;74.00
17373;BME280;8803;48.116;11.590;2024-01-15T17:06:20;94363.30;;;3.79;73.84
17373;BME280;8803;48.116;11.590;2024-01-15T17:08:24;94378.15;;;3.74;73.40
17373;BME280;8803;48.116;11.590;2024-01-15T17:12:42;94370.58;;;3.81;74.30
17373;BME280;8803;48.116;11.590;2024-01-15T17:17:01;94386.98;;;3.79;74.42
17373;BME280;8803;48.116;11.590;2024-01-15T17:19:06;94380.45;;;3.73;73.97
17373;BME280;8803;48.116;11.590;2024-01-15T17:23:24;94393.23;;;3.78;74.62
17373;BME280;8803;48.116;11.590;2024-01-15T17:27:42;94392.25;;;3.79;74.00
17373;BME280;8803;48.116;11.590;2024-01-15T17:32:19;94395.02;;;3.77;75.86
17373;BME280;8803;48.116;11.590;2024-01-15T17:34:24;94403.90;;;3.71;74.66
17373;BME280;8803;48.116;11.590;2024-01-15T17:38:41;94402.11;;;3.71;75.77
17373;BME280;8803;48.116;11.590;2024-01-15T17:43:00;94428.29;;;3.73;76.73
17373;BME280;8803;48.116;11.590;2024-01-15T17:47:23;94469.69;;;3.34;80.70
17373;BME280;8803;48.116;11.590;2024-01-15T17:51:41;94483.98;;;2.81;87.40
17373;BME280;8803;48.116;11.590;2024-01-15T17:56:00;94484.31;;;2.44;91.04
17373;BME280;8803;48.116;11.590;2024-01-15T18:00:21;94480.78;;;2.15;93.40
17373;BME280;8803;48.116;11.590;2024-01-15T18:04:39;94490.86;;;1.92;93.76
17373;BME280;8803;48.116;11.590;2024-01-15T18:08:57;94495.98;;;1.59;95.82
17373;BME280;8803;48.116;11.590;2024-01-15T18:13:15;94493.29;;;1.72;95.88
17373;BME280;8803;48.116;11.590;2024-01-15T18:17:32;94502.61;;;1.81;95.58
17373;BME280;8803;48.116;11.590;2024-01-15T18:21:51;94508.11;;;1.78;96.37
17373;BME280;8803;48.116;11.590;2024-01-15T18:26:12;94516.72;;;1.20;99.31
17373;BME280;8803;48.116;11.590;2024-01-15T18:28:17;94513.95;;;1.58;97.15
17373;BME280;8803;48.116;11.590;2024-01-15T18:32:35;94513.74;;;1.85;96.18
17373;BME280;8803;48.116;11.590;2024-01-15T18:36:52;94523.59;;;1.76;95.27
17373;BME280;8803;48.116;11.590;2024-01-15T18:41:10;94535.59;;;1.91;94.32
17373;BME280;8803;48.116;11.590;2024-01-15T18:45:29;94528.75;;;2.12;92.93
17373;BME280;8803;48.116;11.590;2024-01-15T18:49:47;94510.88;;;2.22;92.19
17373;BME280;8803;48.116;11.590;2024-01-15T18:54:07;94505.97;;;2.12;91.91
17373;BME280;8803;48.116;11.590;2024-01-15T18:58:24;94508.72;;;2.16;90.76
17373;BME280;8803;48.116;11.590;2024-01-15T19:02:42;94524.82;;;2.17;89.96
17373;BME280;8803;48.116;11.590;2024-01-15T19:07:00;94532.95;;;2.20;88.10
17373;BME280;8803;48.116;11.590;2024-01-15T19:11:18;94539.38;;;2.16;87.34
17373;BME280;8803;48.116;11.590;2024-01-15T19:15:37;94534.98;;;2.22;87.84
17373;BME280;8803;48.116;11.590;2024-01-15T19:19:55;94546.08;;;2.25;84.23
17373;BME280;8803;48.116;11.590;2024-01-15T19:24:13;94549.80;;;2.23;84.06
17373;BME280;8803;48.116;11.590;2024-01-15T19:28:31;94567.46;;;2.26;82.65
17373;BME280;8803;48.116;11.590;2024-01-15T19:32:49;94566.41;;;2.00;82.22
17373;BME280;8803;48.116;11.590;2024-01-15T19:37:07;94574.05;;;2.08;83.37
17373;BME280;8803;48.116;11.590;2024-01-15T19:41:25;94581.26;;;2.17;82.61
17373;BME280;8803;48.116;11.590;2024-01-15T19:45:42;94584.98;;;2.20;82.15
17373;BME280;8803;48.116;11.590;2024-01-15T19:50:00;94586.55;;;2.23;82.86
17373;BME280;8803;48.116;11.590;2024-01-15T19:54:17;94600.67;;;2.33;81.56
17373;BME280;8803;48.116;11.590;2024-01-15T19:58:35;94604.36;;;2.36;80.44
17373;BME280;8803;48.116;11.590;2024-01-15T20:02:53;94612.73;;;2.35;80.74
17373;BME280;8803;48.116;11.590;2024-01-15T20:07:11;94609.98;;;2.37;80.22
17373;BME280;8803;48.116;11.590;2024-01-15T20:11:29;94618.34;;;2.36;79.33
17373;BME280;8803;48.116;11.590;2024-01-15T20:15:48;94633.25;;;2.36;79.50
17373;BME280;8803;48.116;11.590;2024-01-15T20:20:10;94641.50;;;2.37;80.21
17373;BME280;8803;48.116;11.590;2024-01-15T20:22:15;94655.31;;;2.33;79.43
17373;BME280;8803;48.116;11.590;2024-01-15T20:28:52;94664.37;;;2.29;77.34
17373;BME280;8803;48.116;11.590;2024-01-15T20:33:10;94659.49;;;2.30;76.29
17373;BME280;8803;48.116;11.590;2024-01-15T20:37:31;94664.66;;;2.14;75.72
17373;BME280;8803;48.116;11.590;2024-01-15T20:41:48;94678.66;;;2.20;77.04
17373;BME280;8803;48.116;11.590;2024-01-15T20:46:07;94690.61;;;2.24;77.27
17373;BME280;8803;48.116;11.590;2024-01-15T20:50:25;94706.50;;;2.28;77.81
17373;BME280;8803;48.116;11.590;2024-01-15T20:54:43;94714.52;;;2.32;76.47